Weather observations for the past three days for
Norfolk Hampton Roads Executive Airport
Metric (Imperial)
Date Time (edt) Wind (kph) Vis. (km) Weather Sky Cond. Temperature (ºC) Relative Humidity Wind Chill (°C) Heat Index (°C) Pressure Precipitation (cm)
Air Dwpt 6 hour altimeter (cm) sea level (mb) 1 hr 3 hr 6 hr
Max. Min.
09 14:55 SW 19 G 28 16.09 Fair CLR 24 11 44% 25 75.79 1029.8
09 13:56 SW 13 16.09 Fair CLR 23.9 11.7 23.9 15.6 46% 25 75.82 1011.0
09 13:55 SW 13 16.09 Fair CLR 24 12 24 15 47% 25 75.82 1029.9
09 12:56 SW 17 G 26 16.09 A Few Clouds FEW042 22.8 13.3 55% 75.87 1011.5
09 12:55 SW 17 16.09 A Few Clouds FEW042 23 13 53% 75.87 1029.9
09 11:56 S 17 16.09 A Few Clouds FEW028 22.2 15.6 66% 75.92 1012.3
09 11:55 S 15 16.09 Partly Cloudy FEW028 SCT037 22 16 69% 75.92 1029.9
09 10:56 S 11 16.09 Partly Cloudy SCT026 21.1 16.1 73% 76.02 1013.8
09 10:55 S 15 16.09 Partly Cloudy SCT026 21 16 73% 76.02 1029.9
09 09:56 Calm 16.09 Overcast OVC032 17.8 15 84% 76.05 1013.9
09 09:55 S 6 16.09 Overcast OVC034 18 15 83% 76.05 1029.9
09 08:56 Calm 16.09 Overcast BKN036 OVC047 16.1 15 93% 76.07 1014.3
09 08:55 Calm 16.09 Overcast BKN036 OVC049 16 15 94% 76.07 1030.0
09 07:56 Calm 16.09 Fair CLR 15 13.9 15 8.9 93% 76.1 1014.5
09 07:55 Calm 16.09 Fair CLR 15 14 15 9 94% 76.07 1030.0
09 06:56 Calm 16.09 Fair CLR 11 0 0% 76.1 1014.6
09 06:55 Calm 12.87 Fair CLR 11 0 0% 76.1 1030.0
09 05:56 Calm 14.48 Fair CLR 9 0 0% 76.1 1014.7
09 05:55 Calm 14.48 Fair CLR 9 0 0% 76.1 1030.0
09 04:56 S 7 16.09 Fair CLR 12.2 12.2 100% 76.1 1014.8
09 04:55 S 7 16.09 Fair CLR 12 12 100% 76.1 1030.0
09 03:56 S 6 16.09 Fair CLR 11.1 11.1 100% 76.12 1015.0
09 03:55 S 6 16.09 Fair CLR 11 11 100% 76.12 1030.0
09 02:56 Calm 16.09 Fair CLR 10.6 10.6 100% 76.15 1015.3
09 02:55 Calm 16.09 Fair CLR 11 10 94% 76.15 1030.0
09 01:56 S 9 16.09 Fair CLR 12.2 10.6 16.7 12.2 90% 76.2 1015.8
09 01:55 S 9 16.09 Fair CLR 13 11 17 12 88% 76.2 1030.0
09 00:56 S 13 16.09 Fair CLR 12.8 10 83% 76.17 1015.8
09 00:55 S 11 16.09 Fair CLR 13 10 82% 76.17 1030.0
08 23:56 S 9 16.09 Fair CLR 12.2 10 87% 76.2 1016.1
08 23:55 S 9 16.09 Fair CLR 12 10 88% 76.2 1030.0
08 22:56 SE 7 16.09 Fair CLR 12.8 10 83% 76.25 1016.7
08 22:55 SE 7 16.09 Fair CLR 13 10 82% 76.25 1030.0
08 21:56 S 9 16.09 Fair CLR 13.3 10 81% 76.23 1016.5
08 21:55 SE 7 16.09 Fair CLR 13 10 82% 76.23 1030.0
08 20:56 SE 9 16.09 Fair CLR 14.4 10.6 78% 76.2 1015.9
08 20:55 SE 9 16.09 Fair CLR 14 11 82% 76.17 1030.0
08 19:55 S 7 16.09 Fair CLR 17 9 22 17 60% 76.12 1030.0
08 18:56 SE 7 16.09 Fair CLR 19.4 10 55% 76.1 1014.6
08 18:55 SE 9 16.09 Fair CLR 19 10 56% 76.1 1030.0
08 17:56 S 11 16.09 A Few Clouds FEW075 21.7 5.6 35% 76.1 1014.8
08 17:55 S 11 16.09 Fair CLR 21 5 35% 76.12 1030.0
08 16:56 S 13 16.09 Fair CLR 21.7 5 34% 76.1 1014.6
08 16:55 S 17 16.09 Fair CLR 22 5 33% 76.1 1030.0
08 15:56 SW 11 16.09 Fair CLR 21.1 3.3 31% 76.12 1014.9
08 15:55 SW 9 16.09 Fair CLR 21 3 31% 76.12 1030.0
08 14:56 Vrbl 9 16.09 Fair CLR 20.6 4.4 35% 76.17 1015.8
08 14:55 Vrbl 7 16.09 Fair CLR 21 4 33% 76.17 1030.0
08 13:56 Vrbl 9 16.09 A Few Clouds FEW055 19.4 3.9 20 11.1 36% 76.23 1016.4
08 13:55 Vrbl 6 16.09 A Few Clouds FEW055 19 3 20 11 35% 76.23 1030.0
08 12:56 SE 7 16.09 Fair CLR 18.3 6.7 47% 76.3 1017.3
08 12:55 Vrbl 6 16.09 Fair CLR 18 7 49% 76.3 1030.0
08 11:56 Vrbl 6 16.09 Fair CLR 18.3 6.7 47% 76.35 1017.9
08 11:55 Vrbl 9 16.09 Fair CLR 18 7 49% 76.35 1030.1
08 10:56 Vrbl 7 16.09 Fair CLR 17.2 7.2 52% 76.35 1017.9
08 10:55 N 11 16.09 Fair CLR 17 7 52% 76.35 1030.1
08 09:56 N 7 16.09 Fair CLR 16.1 8.9 63% 76.33 1017.5
08 09:55 NE 11 16.09 Fair CLR 16 9 63% 76.3 1030.0
08 08:56 N 9 16.09 Fair CLR 13.9 10 78% 76.3 1017.2
08 08:55 N 9 16.09 Fair CLR 14 11 82% 76.3 1030.0
08 07:56 Calm 16.09 Fair CLR 11 0 11.1 5 0% 76.25 1016.8 0.03
08 07:55 Calm 16.09 Fair CLR 11 0 11 5 0% 76.25 1030.0 25.4
08 06:56 Calm 4.83 Fog/Mist CLR 7 0 0% 76.17 1015.8
08 06:55 Calm 5.63 Fair CLR 7 0 0% 76.17 1030.0
08 05:56 NW 6 8.05 Fair with Haze CLR 6 0 0% 76.12 1015.0
08 05:55 Calm 8.05 Fair CLR 6 0 0% 76.12 1030.0
08 04:56 Calm 3.22 Fog/Mist CLR 5 0 0% 76.07 1014.4 0.03
08 04:55 Calm 3.22 Fair CLR 5 0 0% 76.07 1030.0 25.4
08 03:56 Calm 0.80 Fog CLR 6 0 0% 76.05 1013.9
08 03:55 Calm 0.80 Fair CLR 6 0 0% 76.05 1029.9 25.37
08 02:56 Calm 4.83 Fog/Mist FEW070 7 0 0% 76.02 1013.5 0.03
08 02:55 Calm 4.83 A Few Clouds FEW070 7 0 0% 76.02 1029.9 0.03
08 01:56 Calm 1.21 Fog/Mist CLR 7 0 11.1 7.2 0% 76 1013.3 0.03
08 01:55 Calm 1.21 Fair CLR 7 0 11 7 0% 76 1029.9 50.72
08 00:56 Calm 14.48 Fair CLR 9 0 0% 75.97 1013.0
08 00:55 Calm 14.48 Fair CLR 9 0 0% 75.97 1029.9
07 23:56 W 6 14.48 Overcast OVC110 10 0 0% 75.95 1012.6
07 23:55 W 6 12.87 Overcast OVC110 10 0 0% 75.95 1029.9
07 22:56 W 6 8.05 Mostly Cloudy with Haze FEW009 BKN019 BKN110 10 0 0% 75.92 1012.4 0.03
07 21:56 Calm 12.87 Overcast OVC085 11 0 0% 75.9 1012.1 0.03
07 21:55 Calm 12.87 Overcast OVC085 11 0 0% 75.9 1029.9 0.03
07 20:56 Calm 16.09 Overcast OVC065 11 0 0% 75.87 1011.5
07 20:55 Calm 16.09 Overcast OVC065 11 0 0% 75.87 1029.9 25.32
07 19:56 Calm 16.09 Overcast SCT003 BKN007 OVC060 11 0 12.8 10.6 0% 75.79 0.0 0.08 0.69
07 19:55 Calm 16.09 Overcast SCT003 BKN009 OVC060 11 0 13 11 0% 75.79 0.0 25.45 152.27
07 18:56 SW 6 8.05 Light Rain SCT005 OVC017 11 0 0% 75.82 1011.0 0.05
07 18:55 Calm 8.05 Overcast SCT005 OVC017 11 0 0% 75.82 1029.9 25.4
07 17:56 Calm 16.09 Overcast SCT021 BKN026 OVC037 11 0 0% 75.79 1010.4 0.03
07 17:55 Calm 16.09 Overcast SCT021 BKN026 OVC037 11 0 0% 75.79 1029.8 25.02
07 16:56 E 7 4.83 Light Rain FEW018 OVC035 11 0 0% 75.77 1010.4 0.43 0.53
07 16:55 E 7 4.83 Overcast FEW018 OVC035 11 0 0% 75.77 1029.8 25.73 76.4
07 15:56 Calm 4.02 Light Rain Fog/Mist FEW018 OVC033 11.1 11.1 100% 75.77 1010.2 0.08
07 15:55 E 7 3.22 Overcast FEW018 OVC033 11 11 100% 75.77 1029.8 25.45
07 14:56 NE 17 16.09 Overcast SCT009 BKN016 OVC033 11.7 11.7 100% 75.77 1010.4 0.03
07 14:55 E 17 16.09 Overcast BKN009 BKN016 OVC033 12 12 100% 75.79 1029.8 25.22
07 13:56 E 15 16.09 Light Rain BKN009 BKN014 OVC031 12 0 16.7 11.7 0% 75.77 1010.3 0.2 2.03
07 13:55 E 9 16.09 Overcast FEW006 BKN009 OVC031 12 0 17 12 0% 75.79 1029.8 25.35 151.89
07 12:56 NE 7 8.05 Rain BKN009 BKN014 OVC018 12 0 0% 75.9 1011.8 0.25
07 12:55 NE 6 8.05 Overcast BKN007 BKN014 OVC018 12 0 0% 75.9 1029.9 25.02
07 11:56 NE 7 8.05 Rain SCT007 SCT012 OVC018 12 0 0% 75.92 1012.1 0.66
07 11:55 Vrbl 9 8.05 Overcast SCT007 BKN018 OVC050 12 0 0% 75.92 1029.9 25.65
07 10:56 NE 13 3.22 Heavy Rain OVC006 13 0 0% 75.9 1012.1 0.41 0.91
07 10:55 NE 15 3.22 Overcast OVC006 13 0 0% 75.9 1029.9 25.73 75.87
07 09:56 Vrbl 9 G 26 11.27 Light Rain OVC010 14 0 0% 75.84 1011.2 0.05
07 09:55 NE 13 12.87 Overcast BKN008 OVC012 14 0 0% 75.84 1029.9 24.99
07 08:56 NE 13 6.44 Light Rain BKN006 OVC018 15 0 0% 75.84 1011.3 0.46
07 08:55 Vrbl 11 4.83 Overcast BKN006 OVC018 15 0 0% 75.84 1029.9 25.15
07 07:56 Calm 3.22 Rain FEW009 BKN021 OVC037 0 0 0% 75.82 0.0 0.71 1.37
07 07:55 Calm 3.22 Overcast FEW009 BKN021 OVC037 0 0 0% 75.82 0.0 25.55 76.91
07 06:56 Calm 6.44 Rain FEW009 OVC032 18 0 0% 75.79 1010.6 0.58
07 06:55 Calm 8.05 Overcast FEW009 OVC032 18 0 0% 75.79 1029.8 25.91
07 05:56 W 7 9.66 Light Rain FEW028 OVC042 19 0 0% 75.77 1010.2 0.05
07 05:55 W 7 11.27 Overcast FEW028 OVC042 19 0 0% 75.74 1029.8 0.05
07 04:56 SW 7 16.09 Overcast BKN060 OVC075 18.9 18.9 100% 75.74 1009.9 0.03
07 04:55 Vrbl 6 16.09 Overcast OVC060 19 19 100% 75.74 1029.8 25.4
07 03:56 SW 6 16.09 Overcast SCT075 OVC095 18.9 18.9 100% 75.79 1010.6
07 03:55 SW 9 16.09 Overcast SCT070 OVC090 19 19 100% 75.79 1029.8 25.37
07 02:56 Vrbl 7 16.09 A Few Clouds FEW120 18.9 18.3 96% 75.79 1010.5 0.03
07 02:55 SW 9 16.09 A Few Clouds FEW120 19 18 94% 75.79 1029.8 0.03
07 01:56 SW 7 16.09 Light Rain FEW049 SCT075 SCT110 18.9 17.8 21.7 16.7 93% 75.87 1011.5
07 01:55 SW 7 16.09 Partly Cloudy FEW047 SCT075 SCT110 19 18 22 17 94% 75.87 1029.9
07 00:56 SW 7 16.09 Light Rain SCT050 20 17.2 84% 75.87 1011.6
07 00:55 SW 7 16.09 Partly Cloudy SCT050 20 17 83% 75.87 1029.9
06 23:55 SW 6 16.09 Fair CLR 20 17 83% 75.84 1029.9
06 22:55 W 6 16.09 Mostly Cloudy BKN055 18 17 94% 75.87 1029.9
06 21:56 Calm 16.09 Fair CLR 16.7 16.7 100% 75.84 1011.4
06 21:55 Calm 16.09 Fair CLR 17 17 100% 75.87 1029.9
06 20:56 Calm 16.09 Fair CLR 19.4 16.7 84% 75.87 1011.6
06 20:55 Calm 16.09 Fair CLR 19 17 88% 75.87 1029.9
06 19:56 Calm 16.09 Fair CLR 21.7 16.7 25.6 21.7 73% 75.82 1010.8
06 19:55 SW 6 16.09 Fair CLR 22 17 26 22 73% 75.82 1029.9
06 18:56 SW 7 16.09 Fair CLR 24.4 16.1 60% 26 75.79 1010.5
06 18:55 Vrbl 7 16.09 Fair CLR 24 16 61% 25 75.79 1029.8
06 17:56 SW 13 16.09 Mostly Cloudy BKN120 25 15.6 56% 26 75.79 1010.6
06 17:55 SW 15 16.09 Partly Cloudy SCT120 25 16 57% 26 75.79 1029.8
06 16:56 SW 15 G 26 16.09 Fair CLR 25.6 15.6 54% 26 75.79 1010.5
06 16:55 SW 15 16.09 Fair CLR 26 16 54% 27 75.79 1029.8
06 15:56 SW 15 G 33 16.09 Mostly Cloudy BKN050 25.6 15.6 54% 26 75.87 1011.6
06 15:55 SW 17 16.09 Mostly Cloudy BKN050 26 16 54% 27 75.87 1029.9
Date Time (edt) Wind (kph) Vis. (km) Weather Sky Cond. Air Dwpt Max. Min. Relative Humidity Wind Chill (°C) Heat Index (°C) altimeter (cm) sea level (mb) 1 hr 3 hr 6 hr
6 hour
Temperature (ºC) Pressure Precipitation (cm)